createdAt,value
2022-12-31T00:00:43.819Z,5.35
2022-12-31T00:03:14.980Z,5.50
2022-12-31T00:08:16.652Z,6.15
2022-12-31T00:10:47.593Z,4.75
2022-12-31T00:15:49.406Z,5.07
2022-12-31T00:18:20.607Z,6.03
2022-12-31T00:20:51.955Z,5.20
2022-12-31T00:23:23.013Z,5.35
2022-12-31T00:25:54.128Z,6.68
2022-12-31T00:28:25.100Z,4.60
2022-12-31T00:30:56.184Z,4.65
2022-12-31T00:33:28.997Z,4.43
2022-12-31T00:36:11.337Z,5.55
2022-12-31T00:38:44.019Z,4.57
2022-12-31T00:41:15.961Z,6.57
2022-12-31T00:43:47.115Z,6.30
2022-12-31T00:46:19.236Z,6.40
2022-12-31T00:48:51.219Z,5.68
2022-12-31T00:51:24.174Z,4.15
2022-12-31T00:53:55.599Z,5.15
2022-12-31T00:56:29.830Z,4.47
2022-12-31T00:59:02.225Z,4.72
2022-12-31T01:01:38.538Z,5.35
2022-12-31T01:04:21.904Z,6.22
2022-12-31T01:06:52.990Z,3.75
2022-12-31T01:09:24.080Z,5.18
2022-12-31T01:11:55.270Z,5.30
2022-12-31T01:14:26.580Z,6.53
2022-12-31T01:19:30.455Z,4.45
2022-12-31T01:22:01.751Z,6.15
2022-12-31T01:27:03.521Z,6.30
2022-12-31T01:29:34.738Z,5.38
2022-12-31T01:32:06.804Z,6.30
2022-12-31T01:34:38.407Z,4.63
2022-12-31T01:37:09.760Z,5.80
2022-12-31T01:39:40.678Z,5.40
2022-12-31T01:42:14.123Z,5.45
2022-12-31T01:44:45.320Z,5.97
2022-12-31T01:47:19.421Z,5.40
2022-12-31T01:49:55.575Z,5.70
2022-12-31T01:52:40.362Z,7.00
2022-12-31T01:55:21.524Z,4.40
2022-12-31T01:57:54.749Z,8.00
2022-12-31T02:00:25.856Z,5.13
2022-12-31T02:02:57.593Z,5.15
2022-12-31T02:05:54.259Z,10.15
2022-12-31T02:08:25.330Z,16.23
2022-12-31T02:10:56.260Z,4.57
2022-12-31T02:16:14.238Z,6.13
2022-12-31T02:18:49.494Z,4.45
2022-12-31T02:21:32.196Z,5.55
2022-12-31T02:24:18.487Z,6.60
2022-12-31T02:27:04.071Z,4.50
2022-12-31T02:29:59.527Z,5.43
2022-12-31T02:33:02.936Z,5.93
2022-12-31T02:35:50.280Z,5.80
2022-12-31T02:38:25.179Z,5.82
2022-12-31T02:40:57.055Z,5.85
2022-12-31T02:43:28.709Z,5.95
2022-12-31T02:46:28.017Z,7.90
2022-12-31T02:49:05.809Z,5.40
2022-12-31T02:52:05.889Z,5.50
2022-12-31T02:54:46.742Z,5.07
2022-12-31T02:57:29.809Z,5.93
2022-12-31T03:00:25.475Z,5.00
2022-12-31T03:02:57.762Z,4.88
2022-12-31T03:05:31.222Z,6.47
2022-12-31T03:08:02.395Z,5.03
2022-12-31T03:10:33.740Z,4.75
2022-12-31T03:13:05.383Z,4.10
2022-12-31T03:15:37.198Z,5.30
2022-12-31T03:18:17.086Z,4.93
2022-12-31T03:21:09.566Z,5.85
2022-12-31T03:23:51.615Z,5.60
2022-12-31T03:26:22.500Z,5.35
2022-12-31T03:31:24.089Z,5.10
2022-12-31T03:33:55.342Z,4.18
2022-12-31T03:36:26.821Z,6.07
2022-12-31T03:38:57.779Z,3.75
2022-12-31T03:41:29.198Z,5.85
2022-12-31T03:44:01.543Z,5.72
2022-12-31T03:46:32.600Z,5.18
2022-12-31T03:51:34.216Z,4.20
2022-12-31T03:54:06.059Z,5.38
2022-12-31T03:56:37.297Z,5.82
2022-12-31T03:59:08.378Z,5.85
2022-12-31T04:01:39.871Z,4.88
2022-12-31T04:06:41.250Z,6.20
2022-12-31T04:09:12.223Z,5.05
2022-12-31T04:11:43.523Z,5.13
2022-12-31T04:14:14.902Z,6.70
2022-12-31T04:19:17.270Z,4.60
2022-12-31T04:21:48.619Z,7.63
2022-12-31T04:24:19.951Z,5.45
2022-12-31T04:26:50.959Z,7.60
2022-12-31T04:29:22.375Z,5.30
2022-12-31T04:34:24.345Z,4.63
2022-12-31T04:36:55.237Z,5.43
2022-12-31T04:39:27.484Z,6.32
2022-12-31T04:41:58.938Z,5.75
2022-12-31T04:44:30.562Z,5.75
2022-12-31T04:47:01.581Z,5.80
2022-12-31T04:49:32.813Z,6.15
2022-12-31T04:52:03.946Z,6.25
2022-12-31T04:54:35.420Z,5.10
2022-12-31T04:57:07.986Z,4.95
2022-12-31T04:59:39.160Z,7.00
2022-12-31T05:02:11.115Z,5.05
2022-12-31T05:04:42.643Z,5.47
2022-12-31T05:07:13.745Z,6.80
2022-12-31T05:09:44.622Z,6.18
2022-12-31T05:14:46.243Z,4.67
2022-12-31T05:17:17.667Z,5.43
2022-12-31T05:19:49.113Z,4.35
2022-12-31T05:22:31.818Z,3.80
2022-12-31T05:25:03.426Z,3.78
2022-12-31T05:27:34.691Z,5.28
2022-12-31T05:32:37.287Z,5.70
2022-12-31T05:35:09.286Z,9.55
2022-12-31T05:37:40.408Z,4.22
2022-12-31T05:42:42.321Z,7.00
2022-12-31T05:47:48.957Z,6.15
2022-12-31T05:52:57.772Z,3.90
2022-12-31T05:55:29.289Z,3.85
2022-12-31T05:58:00.674Z,4.15
2022-12-31T06:00:32.702Z,5.32
2022-12-31T06:03:03.886Z,4.25
2022-12-31T06:05:35.547Z,4.43
2022-12-31T06:08:06.956Z,4.32
2022-12-31T06:10:38.349Z,4.88
2022-12-31T06:13:10.097Z,4.68
2022-12-31T06:15:42.399Z,4.45
2022-12-31T06:18:13.698Z,4.68
2022-12-31T06:20:44.780Z,5.60
2022-12-31T06:23:15.918Z,4.80
2022-12-31T06:25:47.130Z,3.88
2022-12-31T06:28:20.302Z,5.82
2022-12-31T06:30:51.931Z,4.18
2022-12-31T06:33:23.107Z,4.63
2022-12-31T06:36:01.867Z,10.85
2022-12-31T06:38:34.359Z,5.97
2022-12-31T06:41:11.615Z,5.60
2022-12-31T06:43:43.809Z,5.65
2022-12-31T06:46:17.564Z,4.15
2022-12-31T06:48:48.936Z,4.50
2022-12-31T06:51:21.964Z,3.95
2022-12-31T06:53:53.766Z,5.13
2022-12-31T06:56:34.396Z,5.10
2022-12-31T06:59:06.896Z,5.93
2022-12-31T07:01:50.272Z,4.93
2022-12-31T07:04:30.698Z,5.03
2022-12-31T07:07:15.522Z,5.15
2022-12-31T07:10:33.822Z,3.28
2022-12-31T07:13:45.153Z,5.53
2022-12-31T07:16:22.445Z,3.95
2022-12-31T07:19:16.698Z,5.72
2022-12-31T07:21:48.432Z,5.00
2022-12-31T07:24:19.756Z,4.82
2022-12-31T07:27:25.081Z,4.07
2022-12-31T07:30:05.015Z,3.75
2022-12-31T07:32:58.729Z,5.55
2022-12-31T07:35:57.219Z,6.53
2022-12-31T07:38:52.771Z,4.88
2022-12-31T07:41:39.101Z,4.10
2022-12-31T07:44:36.897Z,3.17
2022-12-31T07:47:10.372Z,2.70
2022-12-31T07:49:43.623Z,3.35
2022-12-31T07:52:14.796Z,6.88
2022-12-31T07:57:51.082Z,3.53
2022-12-31T08:00:22.549Z,4.85
2022-12-31T08:03:23.903Z,3.92
2022-12-31T08:06:22.928Z,5.78
2022-12-31T08:09:11.176Z,5.05
2022-12-31T08:11:50.627Z,5.68
2022-12-31T08:14:22.332Z,3.85
2022-12-31T08:16:53.821Z,4.47
2022-12-31T08:22:18.225Z,4.72
2022-12-31T08:25:10.787Z,5.07
2022-12-31T08:27:52.717Z,3.67
2022-12-31T08:30:24.808Z,5.60
2022-12-31T08:33:17.752Z,5.80
2022-12-31T08:36:22.323Z,7.55
2022-12-31T08:38:57.747Z,4.93
2022-12-31T08:41:37.616Z,7.78
2022-12-31T08:44:18.352Z,6.07
2022-12-31T08:47:04.477Z,5.80
2022-12-31T08:49:37.246Z,5.63
2022-12-31T08:52:17.593Z,6.93
2022-12-31T08:54:49.059Z,10.57
2022-12-31T09:00:17.836Z,10.77
2022-12-31T09:03:01.160Z,10.80
2022-12-31T09:05:56.456Z,10.63
2022-12-31T09:08:55.088Z,8.50
2022-12-31T09:11:33.484Z,7.10
2022-12-31T09:14:11.162Z,11.10
2022-12-31T09:16:51.479Z,9.70
2022-12-31T09:19:23.156Z,11.07
2022-12-31T09:21:54.933Z,9.95
2022-12-31T09:24:26.058Z,9.00
2022-12-31T09:27:16.261Z,8.02
2022-12-31T09:29:53.364Z,11.77
2022-12-31T09:33:00.851Z,7.35
2022-12-31T09:36:10.970Z,8.93
2022-12-31T09:38:48.021Z,9.88
2022-12-31T09:41:40.744Z,7.38
2022-12-31T09:44:48.462Z,10.10
2022-12-31T09:47:22.587Z,9.35
2022-12-31T09:50:19.568Z,8.60
2022-12-31T09:53:20.776Z,8.45
2022-12-31T09:55:59.022Z,9.15
2022-12-31T09:58:54.537Z,7.90
2022-12-31T10:01:53.297Z,7.03
2022-12-31T10:04:55.212Z,7.88
2022-12-31T10:07:38.355Z,9.80
2022-12-31T10:10:16.982Z,8.93
2022-12-31T10:13:15.710Z,9.35
2022-12-31T10:16:04.556Z,6.30
2022-12-31T10:18:51.930Z,8.40
2022-12-31T10:21:50.345Z,10.15
2022-12-31T10:24:42.518Z,9.52
2022-12-31T10:27:19.699Z,8.65
2022-12-31T10:29:58.299Z,9.57
2022-12-31T10:32:58.072Z,7.93
2022-12-31T10:35:56.465Z,6.95
2022-12-31T10:38:32.664Z,8.60
2022-12-31T10:41:21.490Z,7.60
2022-12-31T10:44:16.694Z,11.27
2022-12-31T10:47:14.811Z,9.05
2022-12-31T10:49:55.175Z,9.35
2022-12-31T10:52:41.670Z,9.23
2022-12-31T10:55:34.455Z,6.88
2022-12-31T11:01:20.087Z,7.97
2022-12-31T11:04:36.296Z,9.77
2022-12-31T11:07:45.055Z,8.55
2022-12-31T11:10:52.548Z,10.80
2022-12-31T11:14:20.159Z,9.55
2022-12-31T11:17:23.503Z,8.68
2022-12-31T11:20:00.380Z,9.73
2022-12-31T11:22:56.463Z,9.73
2022-12-31T11:25:50.500Z,9.13
2022-12-31T11:28:21.848Z,11.20
2022-12-31T11:30:55.799Z,7.85
2022-12-31T11:33:36.008Z,8.70
2022-12-31T11:36:34.911Z,6.90
2022-12-31T11:39:31.262Z,7.57
2022-12-31T11:42:29.271Z,9.90
2022-12-31T11:45:33.832Z,7.80
2022-12-31T11:48:30.094Z,10.45
2022-12-31T11:51:11.297Z,8.35
2022-12-31T11:54:06.484Z,10.60
2022-12-31T11:56:41.010Z,8.70
2022-12-31T11:59:19.200Z,11.18
2022-12-31T12:01:54.645Z,11.45
2022-12-31T12:04:26.460Z,11.15
2022-12-31T12:06:57.929Z,10.10
2022-12-31T12:09:31.482Z,8.82
2022-12-31T12:12:05.484Z,9.98
2022-12-31T12:14:43.072Z,7.22
2022-12-31T12:17:35.788Z,9.38
2022-12-31T12:20:20.420Z,8.63
2022-12-31T12:22:54.242Z,9.57
2022-12-31T12:25:27.683Z,8.02
2022-12-31T12:27:58.663Z,8.93
2022-12-31T12:30:30.753Z,10.35
2022-12-31T12:33:06.163Z,8.68
2022-12-31T12:35:38.458Z,9.27
2022-12-31T12:38:20.539Z,8.32
2022-12-31T12:41:07.309Z,9.13
2022-12-31T12:43:39.682Z,9.75
2022-12-31T12:46:46.086Z,9.55
2022-12-31T12:49:26.776Z,9.32
2022-12-31T12:52:06.980Z,8.60
2022-12-31T12:54:48.654Z,8.90
2022-12-31T12:57:25.482Z,9.88
2022-12-31T13:00:11.968Z,8.73
2022-12-31T13:03:33.172Z,9.20
2022-12-31T13:06:31.915Z,15.90
2022-12-31T13:09:30.342Z,8.13
2022-12-31T13:12:07.281Z,10.05
2022-12-31T13:14:54.597Z,10.05
2022-12-31T13:17:52.706Z,7.82
2022-12-31T13:20:43.516Z,7.80
2022-12-31T13:23:25.362Z,7.45
2022-12-31T13:28:29.445Z,11.60
2022-12-31T13:31:42.449Z,11.00
2022-12-31T13:34:19.140Z,9.65
2022-12-31T13:36:52.331Z,8.98
2022-12-31T13:39:37.505Z,10.88
2022-12-31T13:42:24.664Z,10.80
2022-12-31T13:45:11.678Z,10.65
2022-12-31T13:47:56.436Z,8.13
2022-12-31T13:50:43.025Z,8.20
2022-12-31T13:53:23.841Z,7.47
2022-12-31T13:55:59.756Z,6.75
2022-12-31T13:58:40.252Z,9.10
2022-12-31T14:01:36.144Z,6.80
2022-12-31T14:04:13.966Z,10.18
2022-12-31T14:07:00.512Z,11.05
2022-12-31T14:09:35.073Z,11.85
2022-12-31T14:12:12.699Z,9.25
2022-12-31T14:14:52.414Z,10.68
2022-12-31T14:17:48.711Z,10.13
2022-12-31T14:20:37.345Z,9.07
2022-12-31T14:23:33.011Z,7.00
2022-12-31T14:26:07.825Z,8.32
2022-12-31T14:28:47.117Z,11.98
2022-12-31T14:31:27.892Z,10.90
2022-12-31T14:34:16.450Z,9.63
2022-12-31T14:37:25.757Z,9.38
2022-12-31T14:40:17.389Z,10.63
2022-12-31T14:42:58.173Z,9.00
2022-12-31T14:45:50.092Z,9.97
2022-12-31T14:48:44.264Z,10.82
2022-12-31T14:51:15.735Z,9.07
2022-12-31T14:53:58.257Z,8.57
2022-12-31T14:56:47.941Z,8.80
2022-12-31T14:59:37.271Z,9.25
2022-12-31T15:02:32.581Z,13.02
2022-12-31T15:05:13.259Z,8.75
2022-12-31T15:07:50.253Z,10.98
2022-12-31T15:10:36.623Z,11.10
2022-12-31T15:13:18.071Z,10.73
2022-12-31T15:16:10.495Z,10.45
2022-12-31T15:18:52.347Z,10.07
2022-12-31T15:21:57.036Z,7.85
2022-12-31T15:24:31.995Z,8.68
2022-12-31T15:27:06.180Z,8.02
2022-12-31T15:29:45.044Z,9.18
2022-12-31T15:32:27.458Z,11.52
2022-12-31T15:35:24.493Z,9.77
2022-12-31T15:38:17.129Z,8.60
2022-12-31T15:40:53.978Z,8.98
2022-12-31T15:43:46.482Z,6.80
2022-12-31T15:46:21.311Z,9.50
2022-12-31T15:49:15.612Z,9.07
2022-12-31T15:51:54.013Z,9.45
2022-12-31T15:54:38.727Z,13.45
2022-12-31T15:57:15.900Z,9.52
2022-12-31T15:59:47.517Z,8.38
2022-12-31T16:02:25.654Z,8.07
2022-12-31T16:04:57.278Z,8.15
2022-12-31T16:07:29.970Z,5.93
2022-12-31T16:10:02.316Z,10.57
2022-12-31T16:12:42.460Z,8.93
2022-12-31T16:15:23.322Z,9.18
2022-12-31T16:18:06.015Z,11.30
2022-12-31T16:20:48.720Z,12.60
2022-12-31T16:23:29.308Z,13.50
2022-12-31T16:26:03.111Z,13.50
2022-12-31T16:28:35.325Z,8.90
2022-12-31T16:31:09.325Z,9.85
2022-12-31T16:33:40.515Z,11.10
2022-12-31T16:36:25.476Z,9.85
2022-12-31T16:39:00.885Z,13.60
2022-12-31T16:41:44.010Z,9.55
2022-12-31T16:44:29.531Z,9.13
2022-12-31T16:47:05.434Z,8.32
2022-12-31T16:49:39.633Z,8.50
2022-12-31T16:52:24.381Z,10.35
2022-12-31T16:54:55.567Z,10.50
2022-12-31T16:57:29.180Z,9.43
2022-12-31T17:00:08.534Z,9.25
2022-12-31T17:02:42.175Z,8.27
2022-12-31T17:05:31.678Z,7.82
2022-12-31T17:08:21.959Z,8.98
2022-12-31T17:10:53.887Z,9.32
2022-12-31T17:13:31.831Z,12.27
2022-12-31T17:16:03.647Z,8.38
2022-12-31T17:18:39.841Z,7.15
2022-12-31T17:21:12.305Z,8.88
2022-12-31T17:23:44.027Z,11.25
2022-12-31T17:28:47.814Z,11.35
2022-12-31T17:31:38.873Z,7.20
2022-12-31T17:34:16.126Z,10.67
2022-12-31T17:37:25.727Z,9.23
2022-12-31T17:40:40.605Z,7.80
2022-12-31T17:42:54.737Z,10.40
2022-12-31T17:45:26.159Z,6.82
2022-12-31T17:48:01.241Z,6.68
2022-12-31T17:50:32.407Z,8.25
2022-12-31T17:53:11.997Z,8.77
2022-12-31T17:55:44.692Z,9.18
2022-12-31T17:58:30.661Z,8.30
2022-12-31T18:01:02.562Z,9.25
2022-12-31T18:03:34.500Z,7.72
2022-12-31T18:06:09.163Z,9.25
2022-12-31T18:08:44.190Z,8.60
2022-12-31T18:13:50.874Z,6.30
2022-12-31T18:16:22.069Z,9.35
2022-12-31T18:18:53.321Z,8.60
2022-12-31T18:21:35.963Z,10.40
2022-12-31T18:24:07.488Z,8.93
2022-12-31T18:26:38.406Z,9.38
2022-12-31T18:29:21.356Z,5.93
2022-12-31T18:31:53.348Z,8.93
2022-12-31T18:34:24.511Z,11.13
2022-12-31T18:36:55.471Z,8.50
2022-12-31T18:39:26.590Z,8.75
2022-12-31T18:41:57.831Z,8.57
2022-12-31T18:44:28.979Z,9.40
2022-12-31T18:47:00.622Z,8.20
2022-12-31T18:49:32.015Z,10.18
2022-12-31T18:52:03.306Z,9.25
2022-12-31T18:54:34.333Z,10.07
2022-12-31T18:57:05.511Z,5.68
2022-12-31T18:59:36.728Z,8.93
2022-12-31T19:02:16.517Z,9.00
2022-12-31T19:04:47.882Z,4.93
2022-12-31T19:07:19.099Z,7.53
2022-12-31T19:09:54.659Z,6.70
2022-12-31T19:12:29.948Z,8.65
2022-12-31T19:15:01.322Z,8.95
2022-12-31T19:17:33.736Z,8.13
2022-12-31T19:20:05.832Z,5.32
2022-12-31T19:22:36.882Z,7.85
2022-12-31T19:25:24.018Z,8.02
2022-12-31T19:27:55.683Z,10.45
2022-12-31T19:30:28.791Z,6.30
2022-12-31T19:32:59.862Z,8.05
2022-12-31T19:35:30.973Z,7.60
2022-12-31T19:38:02.355Z,8.45
2022-12-31T19:40:34.020Z,8.77
2022-12-31T19:43:05.183Z,5.68
2022-12-31T19:45:36.370Z,5.30
2022-12-31T19:48:07.656Z,7.45
2022-12-31T19:50:38.819Z,7.95
2022-12-31T19:53:13.574Z,5.20
2022-12-31T19:55:45.122Z,6.43
2022-12-31T19:58:27.465Z,5.78
2022-12-31T20:01:02.690Z,8.43
2022-12-31T20:03:35.551Z,6.68
2022-12-31T20:06:11.717Z,8.02
2022-12-31T20:08:46.107Z,7.43
2022-12-31T20:11:26.023Z,5.93
2022-12-31T20:13:57.780Z,6.13
2022-12-31T20:16:31.088Z,5.50
2022-12-31T20:19:02.784Z,4.57
2022-12-31T20:21:33.795Z,5.03
2022-12-31T20:24:05.451Z,6.40
2022-12-31T20:26:36.324Z,8.20
2022-12-31T20:29:07.515Z,6.57
2022-12-31T20:31:38.686Z,7.65
2022-12-31T20:34:09.661Z,6.78
2022-12-31T20:36:41.591Z,6.13
2022-12-31T20:41:43.258Z,4.72
2022-12-31T20:44:14.522Z,5.25
2022-12-31T20:46:45.759Z,6.80
2022-12-31T20:49:23.713Z,5.45
2022-12-31T20:52:07.933Z,3.45
2022-12-31T20:57:10.467Z,5.82
2022-12-31T20:59:41.283Z,5.60
2022-12-31T21:02:21.232Z,5.53
2022-12-31T21:04:53.240Z,6.20
2022-12-31T21:07:24.521Z,6.00
2022-12-31T21:09:55.654Z,7.70
2022-12-31T21:12:45.244Z,6.22
2022-12-31T21:15:17.088Z,6.50
2022-12-31T21:17:48.653Z,7.60
2022-12-31T21:20:20.448Z,5.97
2022-12-31T21:22:51.600Z,5.82
2022-12-31T21:25:22.527Z,4.00
2022-12-31T21:27:53.592Z,5.47
2022-12-31T21:30:24.739Z,7.25
2022-12-31T21:32:55.942Z,5.28
2022-12-31T21:35:48.440Z,5.78
2022-12-31T21:38:18.484Z,4.50
2022-12-31T21:40:50.009Z,6.22
2022-12-31T21:43:21.530Z,6.25
2022-12-31T21:48:31.671Z,6.03
2022-12-31T21:51:11.619Z,6.15
2022-12-31T21:53:42.809Z,6.18
2022-12-31T21:56:16.080Z,4.90
2022-12-31T21:59:14.619Z,4.88
2022-12-31T22:02:03.923Z,4.75
2022-12-31T22:05:01.334Z,7.00
2022-12-31T22:07:26.511Z,4.57
2022-12-31T22:09:57.849Z,6.20
2022-12-31T22:12:29.036Z,5.38
2022-12-31T22:17:48.178Z,6.72
2022-12-31T22:20:28.309Z,6.20
2022-12-31T22:22:59.864Z,4.72
2022-12-31T22:30:52.446Z,5.07
2022-12-31T22:33:23.741Z,6.13
2022-12-31T22:36:08.637Z,5.93
2022-12-31T22:38:40.983Z,4.70
2022-12-31T22:41:13.415Z,5.13
2022-12-31T22:43:47.608Z,5.68
2022-12-31T22:46:27.599Z,7.25
2022-12-31T22:49:02.464Z,6.38
2022-12-31T22:51:56.643Z,5.20
2022-12-31T22:54:26.161Z,6.40
2022-12-31T22:56:57.186Z,5.97
2022-12-31T23:01:59.081Z,5.65
2022-12-31T23:04:30.133Z,5.45
2022-12-31T23:09:49.006Z,6.07
2022-12-31T23:12:20.216Z,4.60
2022-12-31T23:17:58.374Z,5.32
2022-12-31T23:20:48.305Z,3.85
2022-12-31T23:23:19.690Z,7.53
2022-12-31T23:25:53.354Z,7.47
2022-12-31T23:28:26.756Z,3.67
2022-12-31T23:30:57.784Z,4.82
2022-12-31T23:36:07.251Z,4.80
2022-12-31T23:38:38.520Z,5.38
2022-12-31T23:41:17.699Z,4.78
2022-12-31T23:43:48.938Z,4.18
2022-12-31T23:46:20.396Z,4.97
2022-12-31T23:48:51.754Z,7.20
2022-12-31T23:51:23.490Z,4.68
2022-12-31T23:53:54.725Z,6.00
2022-12-31T23:56:25.937Z,3.83
2022-12-31T23:58:58.083Z,5.60
